Time;durP1;ratioP1;P1;durP2;ratioP2;P2;SDS_P1;SDS_P2;PMS_P1;PMS_P2;Temp;Humidity;BMP_temperature;BMP_pressure;BME280_temperature;BME280_humidity;BME280_pressure;Samples;Min_cycle;Max_cycle;Signal;HPM_P1;HPM_P2
2021/06/11 00:00:16;;;;;;;6.63;4.30;;;;;;;;;;4987647;28;20440;-72
2021/06/11 00:02:43;;;;;;;10.03;5.70;;;;;;;;;;4991384;28;20460;-72
2021/06/11 00:05:09;;;;;;;6.70;4.60;;;;;;;;;;4983565;28;20488;-72
2021/06/11 00:07:36;;;;;;;7.00;4.10;;;;;;;;;;4980878;28;20495;-72
2021/06/11 00:10:04;;;;;;;7.27;4.97;;;;;;;;;;4987857;28;20435;-72
2021/06/11 00:12:30;;;;;;;7.00;4.90;;;;;;;;;;4986422;28;20483;-72
2021/06/11 00:14:56;;;;;;;7.53;4.57;;;;;;;;;;4986725;28;20464;-72
2021/06/11 00:17:22;;;;;;;8.77;4.93;;;;;;;;;;4982651;28;20495;-72
2021/06/11 00:19:48;;;;;;;5.73;3.53;;;;;;;;;;4986304;28;20441;-72
2021/06/11 00:22:14;;;;;;;7.10;4.70;;;;;;;;;;4983835;28;20473;-72
2021/06/11 00:24:40;;;;;;;5.97;4.37;;;;;;;;;;4985678;28;20538;-72
2021/06/11 00:27:06;;;;;;;6.50;4.23;;;;;;;;;;4989440;28;20935;-72
2021/06/11 00:29:32;;;;;;;6.23;4.20;;;;;;;;;;4986705;28;20437;-72
2021/06/11 00:31:58;;;;;;;7.07;4.87;;;;;;;;;;4984905;28;20449;-72
2021/06/11 00:34:24;;;;;;;7.73;5.10;;;;;;;;;;4987480;28;20566;-72
2021/06/11 00:36:50;;;;;;;6.90;4.20;;;;;;;;;;4982622;28;20472;-72
2021/06/11 00:39:16;;;;;;;7.90;4.93;;;;;;;;;;4971780;28;20531;-72
2021/06/11 00:41:42;;;;;;;7.23;4.87;;;;;;;;;;4983655;28;20954;-72
2021/06/11 00:44:08;;;;;;;9.60;5.90;;;;;;;;;;4988658;28;20444;-72
2021/06/11 00:46:34;;;;;;;8.10;5.00;;;;;;;;;;4985159;28;20471;-72
2021/06/11 00:49:01;;;;;;;9.07;5.20;;;;;;;;;;4987518;28;20441;-72
2021/06/11 00:51:27;;;;;;;9.97;6.53;;;;;;;;;;4988311;28;20441;-72
2021/06/11 00:53:53;;;;;;;6.53;4.10;;;;;;;;;;4985531;28;21193;-72
2021/06/11 00:56:20;;;;;;;6.20;4.90;;;;;;;;;;4983043;28;20484;-72
2021/06/11 00:58:46;;;;;;;8.70;5.93;;;;;;;;;;4981800;28;20450;-72
2021/06/11 01:01:12;;;;;;;6.10;4.80;;;;;;;;;;4986514;28;20429;-72
2021/06/11 01:03:38;;;;;;;10.30;4.80;;;;;;;;;;4983238;28;20472;-72
2021/06/11 01:06:05;;;;;;;7.80;5.20;;;;;;;;;;4987073;28;20453;-72
2021/06/11 01:08:32;;;;;;;7.50;5.20;;;;;;;;;;4983442;28;20882;-72
2021/06/11 01:10:58;;;;;;;9.97;5.80;;;;;;;;;;4986103;28;20437;-72
2021/06/11 01:13:25;;;;;;;7.57;4.50;;;;;;;;;;4988412;28;21042;-72
2021/06/11 01:15:51;;;;;;;6.87;4.80;;;;;;;;;;4985045;28;20581;-72
2021/06/11 01:18:19;;;;;;;5.37;3.93;;;;;;;;;;4985200;28;20451;-72
2021/06/11 01:20:45;;;;;;;7.03;4.70;;;;;;;;;;4986719;28;20527;-72
2021/06/11 01:23:11;;;;;;;7.43;4.73;;;;;;;;;;4986988;28;20469;-72
2021/06/11 01:26:00;;;;;;;5.10;3.77;;;;;;;;;;4980599;28;21074;-73
2021/06/11 01:28:27;;;;;;;8.40;5.00;;;;;;;;;;4983085;28;20513;-72
2021/06/11 01:30:55;;;;;;;7.03;5.13;;;;;;;;;;4985647;28;20896;-72
2021/06/11 01:33:22;;;;;;;5.50;4.30;;;;;;;;;;4986735;28;20954;-72
2021/06/11 01:36:08;;;;;;;9.33;5.83;;;;;;;;;;4986974;28;20488;-72
2021/06/11 01:38:37;;;;;;;8.87;4.87;;;;;;;;;;4987137;28;20978;-72
2021/06/11 01:41:10;;;;;;;7.67;5.07;;;;;;;;;;4988829;28;20448;-72
2021/06/11 01:43:37;;;;;;;7.60;5.03;;;;;;;;;;4984117;28;20464;-72
2021/06/11 01:46:04;;;;;;;7.97;5.10;;;;;;;;;;4974881;28;20467;-72
2021/06/11 01:48:30;;;;;;;7.37;4.93;;;;;;;;;;4992848;28;20448;-72
2021/06/11 01:50:57;;;;;;;10.03;5.40;;;;;;;;;;4995243;28;20536;-72
2021/06/11 01:53:24;;;;;;;10.30;5.50;;;;;;;;;;5000071;28;20445;-72
2021/06/11 01:55:50;;;;;;;10.10;5.10;;;;;;;;;;4970101;28;20491;-72
2021/06/11 01:58:17;;;;;;;11.97;6.07;;;;;;;;;;4972569;28;20456;-72
2021/06/11 02:00:44;;;;;;;8.50;5.80;;;;;;;;;;4983545;28;21179;-72
2021/06/11 02:03:10;;;;;;;13.20;4.87;;;;;;;;;;4987797;28;20970;-72
2021/06/11 02:05:37;;;;;;;7.80;5.60;;;;;;;;;;4983942;28;20460;-72
2021/06/11 02:08:04;;;;;;;8.03;4.67;;;;;;;;;;4984198;28;20455;-72
2021/06/11 02:10:30;;;;;;;8.87;5.80;;;;;;;;;;4984092;28;20433;-72
2021/06/11 02:12:57;;;;;;;8.03;5.40;;;;;;;;;;4981660;28;20502;-72
2021/06/11 02:15:23;;;;;;;10.60;6.10;;;;;;;;;;4983778;28;20526;-72
2021/06/11 02:17:50;;;;;;;8.50;5.63;;;;;;;;;;4983927;28;20433;-72
2021/06/11 02:20:18;;;;;;;7.97;4.97;;;;;;;;;;4977165;28;20445;-72
2021/06/11 02:22:45;;;;;;;10.33;5.87;;;;;;;;;;4985331;28;20465;-71
2021/06/11 02:25:13;;;;;;;6.90;5.00;;;;;;;;;;4981727;28;20465;-71
2021/06/11 02:27:40;;;;;;;10.43;5.37;;;;;;;;;;4981340;28;20520;-71
2021/06/11 02:30:07;;;;;;;10.30;5.23;;;;;;;;;;4984649;28;20448;-72
2021/06/11 02:32:34;;;;;;;12.00;6.10;;;;;;;;;;4985994;28;20447;-71
2021/06/11 02:35:05;;;;;;;7.77;5.77;;;;;;;;;;4971448;28;20515;-70
2021/06/11 02:37:31;;;;;;;7.57;5.77;;;;;;;;;;4985021;28;20832;-71
2021/06/11 02:39:57;;;;;;;10.07;5.60;;;;;;;;;;4984923;28;20444;-71
2021/06/11 02:42:23;;;;;;;12.83;6.03;;;;;;;;;;4968410;28;20479;-71
2021/06/11 02:44:51;;;;;;;7.63;5.50;;;;;;;;;;4985834;28;21045;-72
2021/06/11 02:47:19;;;;;;;8.00;5.53;;;;;;;;;;4984839;28;20429;-72
2021/06/11 02:49:48;;;;;;;13.57;6.67;;;;;;;;;;4979623;28;20444;-71
2021/06/11 02:52:15;;;;;;;9.33;6.10;;;;;;;;;;4983096;28;20476;-71
2021/06/11 02:54:43;;;;;;;10.50;6.30;;;;;;;;;;4979067;28;20460;-71
2021/06/11 02:57:16;;;;;;;10.23;5.30;;;;;;;;;;4985095;28;20437;-71
2021/06/11 02:59:44;;;;;;;7.87;6.10;;;;;;;;;;4982798;28;20429;-71
2021/06/11 03:02:11;;;;;;;8.87;5.73;;;;;;;;;;4983297;28;20527;-71
2021/06/11 03:04:43;;;;;;;10.00;5.50;;;;;;;;;;4977931;28;20469;-71
2021/06/11 03:07:10;;;;;;;7.30;5.30;;;;;;;;;;4985430;28;20483;-71
2021/06/11 03:09:37;;;;;;;10.87;5.40;;;;;;;;;;4975673;28;20452;-71
2021/06/11 03:12:04;;;;;;;7.90;5.40;;;;;;;;;;4984470;28;20443;-71
2021/06/11 03:14:30;;;;;;;8.20;5.20;;;;;;;;;;4966973;28;20444;-72
2021/06/11 03:17:03;;;;;;;6.70;4.83;;;;;;;;;;4985937;28;20539;-71
2021/06/11 03:19:31;;;;;;;7.57;5.40;;;;;;;;;;4985120;28;20442;-71
2021/06/11 03:22:05;;;;;;;9.37;6.27;;;;;;;;;;4979706;28;20465;-71
2021/06/11 03:24:42;;;;;;;8.93;5.70;;;;;;;;;;4984950;28;20444;-71
2021/06/11 03:27:13;;;;;;;10.17;6.17;;;;;;;;;;4984292;28;20445;-71
2021/06/11 03:29:45;;;;;;;11.80;6.50;;;;;;;;;;4984685;28;20883;-71
2021/06/11 03:32:19;;;;;;;9.50;5.90;;;;;;;;;;4989382;28;20484;-71
2021/06/11 03:34:46;;;;;;;12.83;6.63;;;;;;;;;;4985693;28;21006;-71
2021/06/11 03:37:21;;;;;;;10.67;7.27;;;;;;;;;;4987595;28;20459;-71
2021/06/11 03:39:50;;;;;;;8.73;5.90;;;;;;;;;;4987996;28;20439;-71
2021/06/11 03:42:17;;;;;;;12.00;6.70;;;;;;;;;;4986834;28;20574;-72
2021/06/11 03:44:44;;;;;;;8.00;5.60;;;;;;;;;;4983848;28;20514;-72
2021/06/11 03:47:11;;;;;;;13.27;6.73;;;;;;;;;;4987285;28;21115;-72
2021/06/11 03:49:40;;;;;;;12.30;7.50;;;;;;;;;;4986091;28;20448;-72
2021/06/11 03:52:07;;;;;;;12.33;7.50;;;;;;;;;;4983108;28;20449;-72
2021/06/11 03:54:33;;;;;;;11.60;7.33;;;;;;;;;;4990248;28;20606;-72
2021/06/11 03:57:00;;;;;;;10.97;7.33;;;;;;;;;;4987713;28;20440;-72
2021/06/11 03:59:28;;;;;;;15.10;8.73;;;;;;;;;;4982332;28;20929;-72
2021/06/11 04:01:55;;;;;;;10.53;7.53;;;;;;;;;;4987323;28;21014;-72
2021/06/11 04:04:21;;;;;;;15.97;7.00;;;;;;;;;;4985676;28;20455;-72
2021/06/11 04:06:55;;;;;;;11.67;8.20;;;;;;;;;;4987789;28;20966;-72
2021/06/11 04:09:26;;;;;;;11.80;7.13;;;;;;;;;;4986221;28;20444;-72
2021/06/11 04:11:57;;;;;;;9.50;6.97;;;;;;;;;;4985950;28;20471;-72
2021/06/11 04:14:27;;;;;;;11.77;7.43;;;;;;;;;;4986410;28;20942;-72
2021/06/11 04:16:57;;;;;;;10.37;6.70;;;;;;;;;;4989889;28;20441;-72
2021/06/11 04:19:25;;;;;;;8.77;5.90;;;;;;;;;;4987964;28;20448;-72
2021/06/11 04:21:53;;;;;;;12.63;8.30;;;;;;;;;;4982394;28;20481;-72
2021/06/11 04:24:23;;;;;;;11.60;7.57;;;;;;;;;;4987818;28;20441;-71
2021/06/11 04:26:49;;;;;;;12.80;7.67;;;;;;;;;;4988261;28;20441;-72
2021/06/11 04:29:16;;;;;;;15.10;7.80;;;;;;;;;;4984512;28;20523;-71
2021/06/11 04:31:43;;;;;;;12.13;7.57;;;;;;;;;;4985970;28;20499;-72
2021/06/11 04:34:14;;;;;;;10.40;7.30;;;;;;;;;;4988362;28;20444;-72
2021/06/11 04:36:41;;;;;;;10.10;6.87;;;;;;;;;;4979802;28;20465;-72
2021/06/11 04:39:07;;;;;;;11.33;6.57;;;;;;;;;;4980494;28;20453;-72
2021/06/11 04:41:34;;;;;;;10.10;6.83;;;;;;;;;;4985640;28;20437;-72
2021/06/11 04:44:01;;;;;;;11.40;5.90;;;;;;;;;;4983207;28;22442;-72
2021/06/11 04:46:27;;;;;;;6.97;6.10;;;;;;;;;;4983446;28;20506;-72
2021/06/11 04:48:53;;;;;;;6.53;4.90;;;;;;;;;;4986194;28;20433;-72
2021/06/11 04:51:19;;;;;;;8.33;5.50;;;;;;;;;;4978772;28;21108;-72
2021/06/11 04:53:45;;;;;;;9.60;5.33;;;;;;;;;;4981589;28;20452;-71
2021/06/11 04:56:12;;;;;;;8.63;5.60;;;;;;;;;;4987030;28;20456;-72
2021/06/11 04:58:39;;;;;;;7.43;5.10;;;;;;;;;;4983647;28;20528;-73
2021/06/11 05:01:06;;;;;;;8.20;5.37;;;;;;;;;;4983987;28;20524;-72
2021/06/11 05:03:32;;;;;;;7.17;5.80;;;;;;;;;;4985083;28;20571;-73
2021/06/11 05:06:00;;;;;;;8.30;4.93;;;;;;;;;;4980594;28;20449;-72
2021/06/11 05:08:26;;;;;;;14.97;6.30;;;;;;;;;;4976358;28;20452;-71
2021/06/11 05:10:52;;;;;;;19.43;6.47;;;;;;;;;;4975388;28;20468;-71
2021/06/11 05:13:18;;;;;;;8.10;5.13;;;;;;;;;;4985626;28;20436;-72
2021/06/11 05:15:44;;;;;;;9.07;5.70;;;;;;;;;;4980831;28;20476;-72
2021/06/11 05:18:10;;;;;;;9.03;6.07;;;;;;;;;;4977273;28;20449;-72
2021/06/11 05:20:38;;;;;;;8.97;6.20;;;;;;;;;;4979113;28;20465;-72
2021/06/11 05:23:04;;;;;;;7.40;5.47;;;;;;;;;;4973733;28;20472;-72
2021/06/11 05:25:30;;;;;;;9.83;6.60;;;;;;;;;;4970183;28;20453;-72
2021/06/11 05:27:56;;;;;;;7.30;4.80;;;;;;;;;;4970435;28;20467;-71
2021/06/11 05:30:25;;;;;;;7.50;4.80;;;;;;;;;;4976451;28;20560;-71
2021/06/11 05:32:51;;;;;;;11.73;5.90;;;;;;;;;;4981133;28;20562;-71
2021/06/11 05:35:17;;;;;;;9.63;5.33;;;;;;;;;;4978758;28;20469;-71
2021/06/11 05:37:43;;;;;;;6.53;4.70;;;;;;;;;;4977840;28;20604;-71
2021/06/11 05:40:09;;;;;;;8.37;4.73;;;;;;;;;;4974356;28;20531;-72
2021/06/11 05:42:35;;;;;;;9.40;5.27;;;;;;;;;;4981666;28;20621;-72
2021/06/11 05:45:01;;;;;;;7.87;5.47;;;;;;;;;;4952858;28;21352;-71
2021/06/11 05:47:27;;;;;;;7.10;5.00;;;;;;;;;;4983569;28;20447;-71
2021/06/11 05:49:53;;;;;;;8.30;4.50;;;;;;;;;;4974543;28;20437;-72
2021/06/11 05:52:19;;;;;;;7.73;5.27;;;;;;;;;;4979412;28;20958;-71
2021/06/11 05:54:45;;;;;;;8.87;5.63;;;;;;;;;;4979274;28;20559;-71
2021/06/11 05:57:11;;;;;;;7.57;4.77;;;;;;;;;;4973267;28;20520;-70
2021/06/11 05:59:37;;;;;;;8.30;4.77;;;;;;;;;;4978938;28;20459;-70
2021/06/11 06:02:04;;;;;;;8.13;4.40;;;;;;;;;;4978138;28;20456;-71
2021/06/11 06:04:30;;;;;;;6.60;4.73;;;;;;;;;;4981278;28;21025;-72
2021/06/11 06:06:58;;;;;;;8.60;5.13;;;;;;;;;;4974563;28;20536;-70
2021/06/11 06:09:24;;;;;;;5.30;4.00;;;;;;;;;;4962616;28;20448;-71
2021/06/11 06:11:50;;;;;;;8.80;4.63;;;;;;;;;;4978494;28;20439;-71
2021/06/11 06:14:16;;;;;;;9.77;5.33;;;;;;;;;;4977021;28;20823;-71
2021/06/11 06:16:42;;;;;;;8.30;5.23;;;;;;;;;;4983879;28;20445;-72
2021/06/11 06:19:08;;;;;;;8.10;5.17;;;;;;;;;;4982822;28;20432;-73
2021/06/11 06:21:37;;;;;;;12.33;5.60;;;;;;;;;;4980516;28;20452;-72
2021/06/11 06:24:03;;;;;;;8.10;5.63;;;;;;;;;;4979882;28;20469;-72
2021/06/11 06:26:30;;;;;;;11.87;6.20;;;;;;;;;;4980187;28;20539;-72
2021/06/11 06:28:56;;;;;;;9.37;5.30;;;;;;;;;;4984119;28;20608;-72
2021/06/11 06:31:22;;;;;;;9.17;5.67;;;;;;;;;;4983532;28;20441;-73
2021/06/11 06:33:48;;;;;;;7.90;5.53;;;;;;;;;;4976655;28;20429;-72
2021/06/11 06:36:14;;;;;;;7.07;5.00;;;;;;;;;;4978520;28;20453;-71
2021/06/11 06:38:40;;;;;;;8.60;5.70;;;;;;;;;;4981712;28;20882;-71
2021/06/11 06:41:07;;;;;;;8.60;5.33;;;;;;;;;;4982268;28;20974;-72
2021/06/11 06:43:33;;;;;;;8.43;5.17;;;;;;;;;;4972317;28;20885;-71
2021/06/11 06:46:00;;;;;;;8.33;5.73;;;;;;;;;;4982170;28;20947;-72
2021/06/11 06:48:26;;;;;;;8.07;5.10;;;;;;;;;;4980107;28;20437;-72
2021/06/11 06:50:52;;;;;;;6.70;4.70;;;;;;;;;;4984291;28;20437;-71
2021/06/11 06:53:18;;;;;;;12.60;6.60;;;;;;;;;;4985415;28;20448;-72
2021/06/11 06:55:45;;;;;;;6.20;5.00;;;;;;;;;;4979420;28;21181;-72
2021/06/11 06:58:11;;;;;;;15.93;5.57;;;;;;;;;;4983411;28;20520;-72
2021/06/11 07:00:37;;;;;;;8.20;5.10;;;;;;;;;;4978123;28;20468;-74
2021/06/11 07:03:03;;;;;;;7.80;5.00;;;;;;;;;;4978323;28;20896;-71
2021/06/11 07:05:30;;;;;;;11.30;6.97;;;;;;;;;;4968038;28;20482;-73
2021/06/11 07:07:56;;;;;;;9.27;6.07;;;;;;;;;;4979714;28;20524;-72
2021/06/11 07:10:22;;;;;;;8.37;5.47;;;;;;;;;;4978172;28;20479;-73
2021/06/11 07:12:48;;;;;;;9.20;6.10;;;;;;;;;;4981632;28;20475;-72
2021/06/11 07:15:14;;;;;;;12.33;6.20;;;;;;;;;;4975332;28;20535;-72
2021/06/11 07:17:40;;;;;;;9.53;6.10;;;;;;;;;;4986394;28;20445;-73
2021/06/11 07:20:08;;;;;;;8.93;6.27;;;;;;;;;;4976510;28;20990;-72
2021/06/11 07:22:34;;;;;;;7.80;5.30;;;;;;;;;;4985228;28;20982;-72
2021/06/11 07:25:02;;;;;;;9.33;5.60;;;;;;;;;;4986251;28;20460;-72
2021/06/11 07:27:32;;;;;;;14.10;6.50;;;;;;;;;;4981228;28;20428;-73
2021/06/11 07:29:58;;;;;;;8.07;5.63;;;;;;;;;;4979106;28;20445;-73
2021/06/11 07:32:25;;;;;;;7.93;5.53;;;;;;;;;;4984951;28;20464;-72
2021/06/11 07:34:51;;;;;;;9.43;4.90;;;;;;;;;;4985244;28;20514;-72
2021/06/11 07:37:17;;;;;;;11.53;6.10;;;;;;;;;;4984420;28;20456;-72
2021/06/11 07:39:43;;;;;;;6.53;4.67;;;;;;;;;;4981712;28;20444;-72
2021/06/11 07:42:11;;;;;;;9.23;6.03;;;;;;;;;;4983259;28;21022;-72
2021/06/11 07:44:37;;;;;;;5.80;4.20;;;;;;;;;;4958095;28;20526;-71
2021/06/11 07:47:04;;;;;;;9.93;5.13;;;;;;;;;;4977949;28;20551;-72
2021/06/11 07:49:30;;;;;;;7.47;4.80;;;;;;;;;;4976675;28;20464;-72
2021/06/11 07:51:56;;;;;;;9.40;5.87;;;;;;;;;;4985110;28;20433;-72
2021/06/11 07:54:22;;;;;;;6.87;4.90;;;;;;;;;;4979083;28;20479;-72
2021/06/11 07:56:48;;;;;;;8.80;5.50;;;;;;;;;;4971414;28;20532;-71
2021/06/11 07:59:15;;;;;;;7.80;5.00;;;;;;;;;;4975956;28;20444;-72
2021/06/11 08:01:41;;;;;;;8.93;5.50;;;;;;;;;;4981549;28;20447;-71
2021/06/11 08:04:07;;;;;;;9.10;6.17;;;;;;;;;;4984423;28;20479;-73
2021/06/11 08:06:33;;;;;;;8.90;4.90;;;;;;;;;;4979835;28;20453;-72
2021/06/11 08:08:59;;;;;;;5.27;3.50;;;;;;;;;;4974394;28;20448;-71
2021/06/11 08:11:25;;;;;;;4.13;2.37;;;;;;;;;;4974486;28;20441;-72
2021/06/11 08:13:51;;;;;;;3.47;2.57;;;;;;;;;;4983260;28;20437;-72
2021/06/11 08:16:17;;;;;;;4.20;3.20;;;;;;;;;;4977292;28;21081;-72
2021/06/11 08:18:43;;;;;;;3.63;2.30;;;;;;;;;;4972791;28;20446;-72
2021/06/11 08:21:10;;;;;;;5.47;3.47;;;;;;;;;;4986447;28;20463;-72
2021/06/11 08:23:36;;;;;;;8.17;3.83;;;;;;;;;;4978713;28;20472;-71
2021/06/11 08:26:02;;;;;;;6.70;4.00;;;;;;;;;;4973865;28;20460;-72
2021/06/11 08:28:28;;;;;;;9.27;3.50;;;;;;;;;;4973726;28;20518;-72
2021/06/11 08:30:54;;;;;;;3.80;2.80;;;;;;;;;;4974178;28;20669;-72
2021/06/11 08:33:21;;;;;;;2.80;2.43;;;;;;;;;;4974982;28;20836;-71
2021/06/11 08:35:47;;;;;;;4.07;3.03;;;;;;;;;;4964473;28;20461;-71
2021/06/11 08:38:13;;;;;;;4.90;3.20;;;;;;;;;;4975261;28;20460;-72
2021/06/11 08:40:39;;;;;;;3.80;2.83;;;;;;;;;;4981018;28;20530;-72
2021/06/11 08:43:06;;;;;;;5.87;3.33;;;;;;;;;;4980420;28;20476;-71
2021/06/11 08:45:32;;;;;;;7.37;4.60;;;;;;;;;;4976121;28;21007;-71
2021/06/11 08:47:58;;;;;;;8.00;3.10;;;;;;;;;;4982132;28;20429;-71
2021/06/11 08:50:30;;;;;;;6.40;3.63;;;;;;;;;;4974530;28;20531;-71
2021/06/11 08:52:56;;;;;;;5.43;3.90;;;;;;;;;;4985216;28;20448;-71
2021/06/11 08:55:22;;;;;;;6.00;3.80;;;;;;;;;;4978708;28;20460;-71
2021/06/11 08:57:49;;;;;;;5.53;3.50;;;;;;;;;;4979813;28;20453;-72
2021/06/11 09:00:15;;;;;;;4.80;3.60;;;;;;;;;;4972526;28;20432;-71
2021/06/11 09:03:00;;;;;;;6.63;4.17;;;;;;;;;;4984455;28;20530;-71
2021/06/11 09:05:26;;;;;;;8.57;4.33;;;;;;;;;;4978105;28;20547;-72
2021/06/11 09:08:10;;;;;;;3.73;2.97;;;;;;;;;;4969862;28;20443;-71
2021/06/11 09:10:36;;;;;;;5.20;3.70;;;;;;;;;;4981765;28;20437;-71
2021/06/11 09:13:02;;;;;;;6.47;4.17;;;;;;;;;;4972590;28;20448;-71
2021/06/11 09:15:28;;;;;;;8.27;4.87;;;;;;;;;;4981942;28;20464;-71
2021/06/11 09:17:55;;;;;;;6.97;4.60;;;;;;;;;;4976211;28;20440;-71
2021/06/11 09:20:40;;;;;;;7.40;4.30;;;;;;;;;;4980850;28;20440;-71
2021/06/11 09:23:08;;;;;;;7.87;5.40;;;;;;;;;;4983663;28;21021;-71
2021/06/11 09:25:39;;;;;;;5.60;4.17;;;;;;;;;;4966606;28;20461;-72
2021/06/11 09:28:06;;;;;;;5.63;4.10;;;;;;;;;;4979881;28;20484;-72
2021/06/11 09:30:32;;;;;;;5.30;3.67;;;;;;;;;;4979803;28;20433;-71
2021/06/11 09:33:00;;;;;;;6.80;4.80;;;;;;;;;;4980023;28;20789;-71
2021/06/11 09:35:47;;;;;;;5.50;3.40;;;;;;;;;;4972540;28;20461;-72
2021/06/11 09:38:18;;;;;;;5.57;4.10;;;;;;;;;;4975858;28;20951;-72
2021/06/11 09:40:46;;;;;;;7.03;4.20;;;;;;;;;;4979308;28;20531;-73
2021/06/11 09:43:12;;;;;;;7.17;4.60;;;;;;;;;;4977116;28;20475;-72
2021/06/11 09:45:38;;;;;;;6.67;4.27;;;;;;;;;;4971461;28;20460;-73
2021/06/11 09:48:27;;;;;;;6.23;4.70;;;;;;;;;;4979102;28;21227;-73
2021/06/11 09:50:53;;;;;;;7.50;3.33;;;;;;;;;;4980470;28;20433;-73
2021/06/11 09:53:23;;;;;;;4.20;2.87;;;;;;;;;;4980581;28;20444;-71
2021/06/11 09:55:53;;;;;;;9.03;4.20;;;;;;;;;;4979513;28;20495;-75
2021/06/11 09:58:27;;;;;;;6.60;3.83;;;;;;;;;;4976465;28;20540;-73
2021/06/11 10:00:54;;;;;;;6.30;3.40;;;;;;;;;;4983881;28;20812;-73
2021/06/11 10:03:31;;;;;;;4.07;3.40;;;;;;;;;;4966953;28;20560;-74
2021/06/11 10:05:58;;;;;;;4.60;3.37;;;;;;;;;;4978904;28;20460;-74
2021/06/11 10:08:25;;;;;;;8.17;4.70;;;;;;;;;;4980194;28;20440;-72
2021/06/11 10:10:55;;;;;;;6.20;4.10;;;;;;;;;;4985233;28;21006;-73
2021/06/11 10:13:21;;;;;;;5.67;3.67;;;;;;;;;;4983301;28;20436;-72
2021/06/11 10:15:48;;;;;;;6.10;3.70;;;;;;;;;;4982488;28;20473;-73
2021/06/11 10:18:15;;;;;;;4.53;3.30;;;;;;;;;;4981628;28;20464;-73
2021/06/11 10:20:42;;;;;;;7.90;4.70;;;;;;;;;;4981434;28;20437;-73
2021/06/11 10:23:10;;;;;;;5.60;4.23;;;;;;;;;;4981809;28;20587;-74
2021/06/11 10:25:40;;;;;;;6.73;4.00;;;;;;;;;;4979037;28;20763;-74
2021/06/11 10:28:07;;;;;;;14.17;3.70;;;;;;;;;;4978573;28;20502;-75
2021/06/11 10:30:33;;;;;;;6.53;2.90;;;;;;;;;;4980921;28;20488;-74
2021/06/11 10:32:59;;;;;;;5.23;4.07;;;;;;;;;;4979089;28;20798;-74
2021/06/11 10:35:44;;;;;;;5.30;3.20;;;;;;;;;;4984769;28;20547;-75
2021/06/11 10:38:30;;;;;;;2.80;2.47;;;;;;;;;;4976329;28;20457;-75
2021/06/11 10:41:03;;;;;;;4.70;2.80;;;;;;;;;;4980745;28;20446;-73
2021/06/11 10:43:38;;;;;;;5.03;2.43;;;;;;;;;;4985232;28;20464;-73
2021/06/11 10:46:05;;;;;;;6.33;2.67;;;;;;;;;;4983620;28;20499;-73
2021/06/11 10:48:50;;;;;;;14.13;3.03;;;;;;;;;;4976884;28;20436;-75
2021/06/11 10:51:35;;;;;;;3.70;2.37;;;;;;;;;;4971320;28;20441;-75
2021/06/11 10:54:17;;;;;;;2.97;2.67;;;;;;;;;;4972952;28;20437;-75
2021/06/11 10:57:02;;;;;;;6.20;3.10;;;;;;;;;;4971697;28;20941;-75
2021/06/11 10:59:32;;;;;;;3.80;2.87;;;;;;;;;;4980540;28;20469;-75
2021/06/11 11:01:59;;;;;;;5.13;3.37;;;;;;;;;;4976035;28;20444;-74
2021/06/11 11:04:35;;;;;;;4.10;2.33;;;;;;;;;;4970492;28;20433;-74
2021/06/11 11:07:24;;;;;;;2.93;2.63;;;;;;;;;;4981869;28;20567;-74
2021/06/11 11:09:51;;;;;;;16.63;4.07;;;;;;;;;;4949831;28;20437;-76
2021/06/11 11:12:17;;;;;;;2.97;2.57;;;;;;;;;;4970920;28;20986;-75
2021/06/11 11:14:43;;;;;;;3.03;2.37;;;;;;;;;;4973523;28;20515;-74
2021/06/11 11:17:10;;;;;;;4.20;2.97;;;;;;;;;;4973888;28;20448;-76
2021/06/11 11:19:53;;;;;;;4.70;3.10;;;;;;;;;;4977922;28;20448;-75
2021/06/11 11:22:31;;;;;;;3.47;2.83;;;;;;;;;;4976604;28;22103;-75
2021/06/11 11:24:59;;;;;;;5.80;3.00;;;;;;;;;;4983048;28;20456;-75
2021/06/11 11:27:25;;;;;;;3.57;2.73;;;;;;;;;;4982108;28;20440;-75
2021/06/11 11:29:53;;;;;;;4.37;3.10;;;;;;;;;;4984268;28;20519;-75
2021/06/11 11:32:19;;;;;;;4.53;3.63;;;;;;;;;;4984854;28;21019;-75
2021/06/11 11:34:45;;;;;;;2.63;2.43;;;;;;;;;;4982967;28;20447;-76
2021/06/11 11:37:12;;;;;;;4.43;3.00;;;;;;;;;;4983213;28;20452;-75
2021/06/11 11:39:39;;;;;;;3.93;2.43;;;;;;;;;;4982013;28;20809;-74
2021/06/11 11:42:05;;;;;;;2.17;1.90;;;;;;;;;;4982442;28;21063;-75
2021/06/11 11:44:33;;;;;;;1.43;1.30;;;;;;;;;;4981488;28;20432;-75
2021/06/11 11:46:59;;;;;;;4.80;2.00;;;;;;;;;;4983562;28;20455;-76
2021/06/11 11:49:25;;;;;;;1.70;1.60;;;;;;;;;;4981378;28;20436;-75
2021/06/11 11:51:51;;;;;;;2.03;1.30;;;;;;;;;;4986045;28;20456;-75
2021/06/11 11:54:18;;;;;;;6.73;4.00;;;;;;;;;;4977096;28;20436;-77
2021/06/11 11:56:44;;;;;;;3.53;2.77;;;;;;;;;;4981095;28;20831;-75
2021/06/11 11:59:10;;;;;;;7.30;4.70;;;;;;;;;;4984056;28;20490;-74
2021/06/11 12:01:40;;;;;;;6.33;4.40;;;;;;;;;;4983624;28;20452;-74
2021/06/11 12:04:06;;;;;;;7.53;5.23;;;;;;;;;;4982863;28;20465;-77
2021/06/11 12:06:32;;;;;;;8.50;5.03;;;;;;;;;;4962573;28;20448;-77
2021/06/11 12:08:59;;;;;;;6.73;4.07;;;;;;;;;;4983481;28;20432;-77
2021/06/11 12:11:25;;;;;;;9.07;6.13;;;;;;;;;;4982736;28;20436;-76
2021/06/11 12:13:51;;;;;;;9.00;5.53;;;;;;;;;;4983550;28;20443;-74
2021/06/11 12:16:17;;;;;;;8.43;5.50;;;;;;;;;;4977605;28;20495;-73
2021/06/11 12:18:43;;;;;;;8.03;4.57;;;;;;;;;;4979325;28;20443;-75
2021/06/11 12:21:09;;;;;;;8.63;4.67;;;;;;;;;;4976708;28;20441;-74
2021/06/11 12:23:38;;;;;;;7.33;4.37;;;;;;;;;;4974811;28;20475;-74
2021/06/11 12:26:05;;;;;;;9.67;5.90;;;;;;;;;;4975058;28;20467;-76
2021/06/11 12:28:31;;;;;;;6.77;4.80;;;;;;;;;;4989721;28;20463;-75
2021/06/11 12:30:57;;;;;;;7.20;4.27;;;;;;;;;;4990891;28;20476;-76
2021/06/11 12:33:23;;;;;;;7.47;4.47;;;;;;;;;;4990943;28;20420;-76
2021/06/11 12:35:49;;;;;;;6.37;4.17;;;;;;;;;;4990862;28;20516;-75
2021/06/11 12:38:16;;;;;;;9.57;4.87;;;;;;;;;;4987123;28;20444;-76
2021/06/11 12:40:45;;;;;;;7.93;5.50;;;;;;;;;;4989713;28;20927;-77
2021/06/11 12:43:14;;;;;;;10.30;6.40;;;;;;;;;;4989226;28;20464;-76
2021/06/11 12:45:42;;;;;;;8.10;6.00;;;;;;;;;;4981361;28;20483;-75
2021/06/11 12:48:08;;;;;;;10.33;6.50;;;;;;;;;;4973612;28;20961;-75
2021/06/11 12:50:34;;;;;;;9.67;7.10;;;;;;;;;;4981470;28;20912;-74
2021/06/11 12:53:00;;;;;;;9.93;7.20;;;;;;;;;;4976965;28;20443;-76
2021/06/11 12:55:26;;;;;;;9.17;6.87;;;;;;;;;;4969182;28;21227;-76
2021/06/11 12:57:52;;;;;;;9.47;7.03;;;;;;;;;;4972179;28;20951;-75
2021/06/11 13:00:18;;;;;;;8.90;6.43;;;;;;;;;;4980179;28;20495;-76
2021/06/11 13:02:45;;;;;;;6.43;5.50;;;;;;;;;;4970465;28;20541;-76
2021/06/11 13:05:11;;;;;;;9.33;5.80;;;;;;;;;;4969769;28;20601;-76
2021/06/11 13:07:38;;;;;;;9.00;6.47;;;;;;;;;;4982964;28;20441;-76
2021/06/11 13:10:04;;;;;;;10.50;6.50;;;;;;;;;;4973883;28;20446;-76
2021/06/11 13:12:30;;;;;;;6.87;5.73;;;;;;;;;;4985464;28;20432;-76
2021/06/11 13:14:56;;;;;;;7.60;5.00;;;;;;;;;;4987806;28;20470;-77
2021/06/11 13:17:22;;;;;;;9.37;5.60;;;;;;;;;;4990501;28;20432;-77
2021/06/11 13:19:48;;;;;;;8.33;5.80;;;;;;;;;;4978534;28;20801;-76
2021/06/11 13:22:14;;;;;;;7.03;5.33;;;;;;;;;;4980025;28;20512;-77
2021/06/11 13:24:41;;;;;;;10.47;6.27;;;;;;;;;;4984117;28;20444;-75
2021/06/11 13:27:07;;;;;;;8.30;5.03;;;;;;;;;;4970145;28;20461;-77
2021/06/11 13:29:33;;;;;;;6.83;4.80;;;;;;;;;;4988989;28;20417;-76
2021/06/11 13:32:00;;;;;;;7.03;5.10;;;;;;;;;;4990272;28;20467;-77
2021/06/11 13:34:26;;;;;;;7.43;5.57;;;;;;;;;;4990101;28;20487;-77
2021/06/11 13:36:52;;;;;;;7.00;5.23;;;;;;;;;;4989593;28;20524;-77
2021/06/11 13:39:18;;;;;;;7.63;4.70;;;;;;;;;;4989336;28;20991;-78
2021/06/11 13:41:45;;;;;;;9.27;6.90;;;;;;;;;;4987083;28;20425;-76
2021/06/11 13:44:11;;;;;;;8.13;6.17;;;;;;;;;;4989911;28;20519;-77
2021/06/11 13:46:37;;;;;;;9.30;5.70;;;;;;;;;;4987668;28;20989;-76
2021/06/11 13:49:03;;;;;;;7.73;5.43;;;;;;;;;;4990512;28;20939;-76
2021/06/11 13:51:31;;;;;;;10.77;5.13;;;;;;;;;;4990348;28;20520;-77
2021/06/11 13:53:57;;;;;;;7.20;6.07;;;;;;;;;;4990906;28;20417;-76
2021/06/11 13:56:23;;;;;;;8.77;4.97;;;;;;;;;;4988157;28;20872;-77
2021/06/11 13:58:49;;;;;;;9.60;6.00;;;;;;;;;;4986604;28;20875;-77
2021/06/11 14:01:15;;;;;;;7.63;5.80;;;;;;;;;;4984142;28;20440;-77
2021/06/11 14:03:41;;;;;;;8.17;6.17;;;;;;;;;;4972305;28;20462;-77
2021/06/11 14:06:07;;;;;;;8.97;6.60;;;;;;;;;;4979135;28;20523;-78
2021/06/11 14:08:33;;;;;;;8.40;7.00;;;;;;;;;;4972335;28;20967;-77
2021/06/11 14:10:59;;;;;;;9.53;5.87;;;;;;;;;;4973961;28;20429;-76
2021/06/11 14:13:27;;;;;;;10.73;6.70;;;;;;;;;;4985126;28;20517;-76
2021/06/11 14:15:53;;;;;;;8.53;6.20;;;;;;;;;;4981849;28;20458;-76
2021/06/11 14:18:22;;;;;;;9.30;6.07;;;;;;;;;;4982247;28;20479;-77
2021/06/11 14:20:48;;;;;;;9.00;6.73;;;;;;;;;;4982120;28;20443;-76
2021/06/11 14:23:14;;;;;;;11.40;7.67;;;;;;;;;;4985830;28;20468;-77
2021/06/11 14:25:44;;;;;;;8.43;6.43;;;;;;;;;;4988013;28;20445;-75
2021/06/11 14:28:13;;;;;;;10.67;6.30;;;;;;;;;;4982607;28;20454;-75
2021/06/11 14:30:42;;;;;;;8.63;6.57;;;;;;;;;;4983189;28;20434;-76
2021/06/11 14:33:10;;;;;;;9.77;6.37;;;;;;;;;;4987052;28;20433;-77
2021/06/11 14:35:36;;;;;;;8.40;5.40;;;;;;;;;;4980203;28;20855;-76
2021/06/11 14:38:02;;;;;;;9.10;6.30;;;;;;;;;;4977600;28;20453;-75
2021/06/11 14:40:28;;;;;;;11.93;6.57;;;;;;;;;;4980468;28;20444;-76
2021/06/11 14:42:56;;;;;;;8.97;6.00;;;;;;;;;;4980574;28;20475;-76